sensor_id;sensor_type;location;lat;lon;timestamp;temperature;humidity
52565;DHT22;38460;53.106;7.004;2024-01-15T00:02:05;0.70;99.90
52565;DHT22;38460;53.106;7.004;2024-01-15T00:04:39;0.70;99.90
52565;DHT22;38460;53.106;7.004;2024-01-15T00:07:05;0.70;99.90
52565;DHT22;38460;53.106;7.004;2024-01-15T00:09:31;0.90;99.90
52565;DHT22;38460;53.106;7.004;2024-01-15T00:11:57;0.70;99.90
52565;DHT22;38460;53.106;7.004;2024-01-15T00:14:23;0.70;99.90
52565;DHT22;38460;53.106;7.004;2024-01-15T00:16:49;0.70;99.90
52565;DHT22;38460;53.106;7.004;2024-01-15T00:19:21;0.70;99.90
52565;DHT22;38460;53.106;7.004;2024-01-15T00:21:47;0.80;99.90
52565;DHT22;38460;53.106;7.004;2024-01-15T00:24:13;0.80;99.90
52565;DHT22;38460;53.106;7.004;2024-01-15T00:26:39;0.80;99.90
52565;DHT22;38460;53.106;7.004;2024-01-15T00:29:06;1.60;99.90
52565;DHT22;38460;53.106;7.004;2024-01-15T00:31:32;0.70;99.90
52565;DHT22;38460;53.106;7.004;2024-01-15T00:33:58;0.60;99.90
52565;DHT22;38460;53.106;7.004;2024-01-15T00:36:24;0.60;99.90
52565;DHT22;38460;53.106;7.004;2024-01-15T00:38:49;1.30;99.90
52565;DHT22;38460;53.106;7.004;2024-01-15T00:41:15;0.50;99.90
52565;DHT22;38460;53.106;7.004;2024-01-15T00:43:41;1.00;99.90
52565;DHT22;38460;53.106;7.004;2024-01-15T00:46:07;0.50;99.90
52565;DHT22;38460;53.106;7.004;2024-01-15T00:48:33;0.50;99.90
52565;DHT22;38460;53.106;7.004;2024-01-15T00:50:59;0.50;99.90
52565;DHT22;38460;53.106;7.004;2024-01-15T00:53:25;0.50;99.90
52565;DHT22;38460;53.106;7.004;2024-01-15T00:55:51;0.60;99.90
52565;DHT22;38460;53.106;7.004;2024-01-15T00:58:17;0.50;99.90
52565;DHT22;38460;53.106;7.004;2024-01-15T01:00:43;0.50;99.90
52565;DHT22;38460;53.106;7.004;2024-01-15T01:03:08;0.50;99.90
52565;DHT22;38460;53.106;7.004;2024-01-15T01:05:34;0.50;99.90
52565;DHT22;38460;53.106;7.004;2024-01-15T01:08:00;0.50;99.90
52565;DHT22;38460;53.106;7.004;2024-01-15T01:10:26;0.50;99.90
52565;DHT22;38460;53.106;7.004;2024-01-15T01:12:52;1.20;99.90
52565;DHT22;38460;53.106;7.004;2024-01-15T01:15:18;0.80;99.90
52565;DHT22;38460;53.106;7.004;2024-01-15T01:17:44;0.60;99.90
52565;DHT22;38460;53.106;7.004;2024-01-15T01:20:09;0.60;99.90
52565;DHT22;38460;53.106;7.004;2024-01-15T01:22:36;0.70;99.90
52565;DHT22;38460;53.106;7.004;2024-01-15T01:25:02;0.70;99.90
52565;DHT22;38460;53.106;7.004;2024-01-15T01:27:29;0.70;99.90
52565;DHT22;38460;53.106;7.004;2024-01-15T01:29:55;0.70;99.90
52565;DHT22;38460;53.106;7.004;2024-01-15T01:32:20;0.90;99.90
52565;DHT22;38460;53.106;7.004;2024-01-15T01:34:46;0.70;99.90
52565;DHT22;38460;53.106;7.004;2024-01-15T01:37:12;1.00;99.90
52565;DHT22;38460;53.106;7.004;2024-01-15T01:39:41;1.30;99.90
52565;DHT22;38460;53.106;7.004;2024-01-15T01:42:07;0.80;99.90
52565;DHT22;38460;53.106;7.004;2024-01-15T01:44:33;1.60;99.90
52565;DHT22;38460;53.106;7.004;2024-01-15T01:47:00;0.80;99.90
52565;DHT22;38460;53.106;7.004;2024-01-15T01:49:27;0.80;99.90
52565;DHT22;38460;53.106;7.004;2024-01-15T01:51:57;0.70;99.90
52565;DHT22;38460;53.106;7.004;2024-01-15T01:54:23;0.70;99.90
52565;DHT22;38460;53.106;7.004;2024-01-15T01:56:50;0.80;99.90
52565;DHT22;38460;53.106;7.004;2024-01-15T01:59:16;1.10;99.90
52565;DHT22;38460;53.106;7.004;2024-01-15T02:01:43;1.40;99.90
52565;DHT22;38460;53.106;7.004;2024-01-15T02:04:10;0.90;99.90
52565;DHT22;38460;53.106;7.004;2024-01-15T02:06:36;0.90;99.90
52565;DHT22;38460;53.106;7.004;2024-01-15T02:09:01;0.70;99.90
52565;DHT22;38460;53.106;7.004;2024-01-15T02:11:28;0.80;99.90
52565;DHT22;38460;53.106;7.004;2024-01-15T02:13:54;1.00;99.90
52565;DHT22;38460;53.106;7.004;2024-01-15T02:16:20;0.80;99.90
52565;DHT22;38460;53.106;7.004;2024-01-15T02:18:46;0.90;99.90
52565;DHT22;38460;53.106;7.004;2024-01-15T02:21:12;0.90;99.90
52565;DHT22;38460;53.106;7.004;2024-01-15T02:23:38;0.90;99.90
52565;DHT22;38460;53.106;7.004;2024-01-15T02:26:07;1.40;99.90
52565;DHT22;38460;53.106;7.004;2024-01-15T02:28:33;0.90;99.90
52565;DHT22;38460;53.106;7.004;2024-01-15T02:30:59;0.90;99.90
52565;DHT22;38460;53.106;7.004;2024-01-15T02:33:25;1.30;99.90
52565;DHT22;38460;53.106;7.004;2024-01-15T02:35:51;1.00;99.90
52565;DHT22;38460;53.106;7.004;2024-01-15T02:38:16;1.10;99.90
52565;DHT22;38460;53.106;7.004;2024-01-15T02:40:44;1.10;99.90
52565;DHT22;38460;53.106;7.004;2024-01-15T02:43:10;1.10;99.90
52565;DHT22;38460;53.106;7.004;2024-01-15T02:45:35;1.10;99.90
52565;DHT22;38460;53.106;7.004;2024-01-15T02:48:01;1.10;99.90
52565;DHT22;38460;53.106;7.004;2024-01-15T02:50:27;1.10;99.90
52565;DHT22;38460;53.106;7.004;2024-01-15T02:52:53;1.10;99.90
52565;DHT22;38460;53.106;7.004;2024-01-15T02:55:19;1.10;99.90
52565;DHT22;38460;53.106;7.004;2024-01-15T02:57:44;1.10;99.90
52565;DHT22;38460;53.106;7.004;2024-01-15T03:00:10;1.10;99.90
52565;DHT22;38460;53.106;7.004;2024-01-15T03:02:38;1.10;99.90
52565;DHT22;38460;53.106;7.004;2024-01-15T03:05:09;1.20;99.90
52565;DHT22;38460;53.106;7.004;2024-01-15T03:07:35;1.10;99.90
52565;DHT22;38460;53.106;7.004;2024-01-15T03:10:01;1.10;99.90
52565;DHT22;38460;53.106;7.004;2024-01-15T03:12:27;1.00;99.90
52565;DHT22;38460;53.106;7.004;2024-01-15T03:14:53;1.00;99.90
52565;DHT22;38460;53.106;7.004;2024-01-15T03:17:19;1.70;99.90
52565;DHT22;38460;53.106;7.004;2024-01-15T03:19:45;1.00;99.90
52565;DHT22;38460;53.106;7.004;2024-01-15T03:22:11;1.00;99.90
52565;DHT22;38460;53.106;7.004;2024-01-15T03:24:37;1.30;99.90
52565;DHT22;38460;53.106;7.004;2024-01-15T03:27:03;1.10;99.90
52565;DHT22;38460;53.106;7.004;2024-01-15T03:29:29;1.00;99.90
52565;DHT22;38460;53.106;7.004;2024-01-15T03:31:55;1.00;99.90
52565;DHT22;38460;53.106;7.004;2024-01-15T03:34:20;1.00;99.90
52565;DHT22;38460;53.106;7.004;2024-01-15T03:36:46;1.30;99.90
52565;DHT22;38460;53.106;7.004;2024-01-15T03:39:12;1.10;99.90
52565;DHT22;38460;53.106;7.004;2024-01-15T03:41:37;1.00;99.90
52565;DHT22;38460;53.106;7.004;2024-01-15T03:44:03;1.00;99.90
52565;DHT22;38460;53.106;7.004;2024-01-15T03:46:29;1.90;99.90
52565;DHT22;38460;53.106;7.004;2024-01-15T03:48:54;1.10;99.90
52565;DHT22;38460;53.106;7.004;2024-01-15T03:51:20;1.40;99.90
52565;DHT22;38460;53.106;7.004;2024-01-15T03:53:46;1.10;99.90
52565;DHT22;38460;53.106;7.004;2024-01-15T03:56:12;1.10;99.90
52565;DHT22;38460;53.106;7.004;2024-01-15T03:58:38;1.10;99.90
52565;DHT22;38460;53.106;7.004;2024-01-15T04:01:07;1.70;99.90
52565;DHT22;38460;53.106;7.004;2024-01-15T04:03:33;1.10;99.90
52565;DHT22;38460;53.106;7.004;2024-01-15T04:05:58;1.10;99.90
52565;DHT22;38460;53.106;7.004;2024-01-15T04:08:24;1.10;99.90
52565;DHT22;38460;53.106;7.004;2024-01-15T04:10:50;1.10;99.90
52565;DHT22;38460;53.106;7.004;2024-01-15T04:13:16;1.00;99.90
52565;DHT22;38460;53.106;7.004;2024-01-15T04:15:41;1.00;99.90
52565;DHT22;38460;53.106;7.004;2024-01-15T04:18:07;1.00;99.90
52565;DHT22;38460;53.106;7.004;2024-01-15T04:20:33;1.00;99.90
52565;DHT22;38460;53.106;7.004;2024-01-15T04:22:58;1.00;99.90
52565;DHT22;38460;53.106;7.004;2024-01-15T04:25:24;1.00;99.90
52565;DHT22;38460;53.106;7.004;2024-01-15T04:27:50;1.00;99.90
52565;DHT22;38460;53.106;7.004;2024-01-15T04:30:16;0.90;99.90
52565;DHT22;38460;53.106;7.004;2024-01-15T04:32:41;0.90;99.90
52565;DHT22;38460;53.106;7.004;2024-01-15T04:35:07;0.90;99.90
52565;DHT22;38460;53.106;7.004;2024-01-15T04:37:33;0.90;99.90
52565;DHT22;38460;53.106;7.004;2024-01-15T04:39:59;0.90;99.90
52565;DHT22;38460;53.106;7.004;2024-01-15T04:42:25;0.90;99.90
52565;DHT22;38460;53.106;7.004;2024-01-15T04:44:50;1.20;99.90
52565;DHT22;38460;53.106;7.004;2024-01-15T04:47:16;0.90;99.90
52565;DHT22;38460;53.106;7.004;2024-01-15T04:49:42;0.90;99.90
52565;DHT22;38460;53.106;7.004;2024-01-15T04:52:08;0.90;99.90
52565;DHT22;38460;53.106;7.004;2024-01-15T04:54:36;0.90;99.90
52565;DHT22;38460;53.106;7.004;2024-01-15T04:57:02;0.90;99.90
52565;DHT22;38460;53.106;7.004;2024-01-15T04:59:28;0.90;99.90
52565;DHT22;38460;53.106;7.004;2024-01-15T05:01:54;1.00;99.90
52565;DHT22;38460;53.106;7.004;2024-01-15T05:04:20;1.00;99.90
52565;DHT22;38460;53.106;7.004;2024-01-15T05:06:46;1.10;99.90
52565;DHT22;38460;53.106;7.004;2024-01-15T05:09:12;1.10;99.90
52565;DHT22;38460;53.106;7.004;2024-01-15T05:11:39;1.90;99.90
52565;DHT22;38460;53.106;7.004;2024-01-15T05:14:05;1.10;99.90
52565;DHT22;38460;53.106;7.004;2024-01-15T05:16:30;1.10;99.90
52565;DHT22;38460;53.106;7.004;2024-01-15T05:18:56;1.10;99.90
52565;DHT22;38460;53.106;7.004;2024-01-15T05:21:22;1.30;99.90
52565;DHT22;38460;53.106;7.004;2024-01-15T05:23:48;1.10;99.90
52565;DHT22;38460;53.106;7.004;2024-01-15T05:26:13;1.10;99.90
52565;DHT22;38460;53.106;7.004;2024-01-15T05:28:41;1.20;99.90
52565;DHT22;38460;53.106;7.004;2024-01-15T05:31:08;1.20;99.90
52565;DHT22;38460;53.106;7.004;2024-01-15T05:33:34;1.10;99.90
52565;DHT22;38460;53.106;7.004;2024-01-15T05:36:00;1.20;99.90
52565;DHT22;38460;53.106;7.004;2024-01-15T05:38:26;1.10;99.90
52565;DHT22;38460;53.106;7.004;2024-01-15T05:40:51;1.10;99.90
52565;DHT22;38460;53.106;7.004;2024-01-15T05:43:17;1.00;99.90
52565;DHT22;38460;53.106;7.004;2024-01-15T05:45:43;1.50;99.90
52565;DHT22;38460;53.106;7.004;2024-01-15T05:48:10;1.00;99.90
52565;DHT22;38460;53.106;7.004;2024-01-15T05:50:36;1.00;99.90
52565;DHT22;38460;53.106;7.004;2024-01-15T05:53:02;1.00;99.90
52565;DHT22;38460;53.106;7.004;2024-01-15T05:55:28;0.90;99.90
52565;DHT22;38460;53.106;7.004;2024-01-15T05:57:53;1.70;99.90
52565;DHT22;38460;53.106;7.004;2024-01-15T06:00:19;0.90;99.90
52565;DHT22;38460;53.106;7.004;2024-01-15T06:02:45;0.90;99.90
52565;DHT22;38460;53.106;7.004;2024-01-15T06:05:11;0.90;99.90
52565;DHT22;38460;53.106;7.004;2024-01-15T06:07:36;0.80;99.90
52565;DHT22;38460;53.106;7.004;2024-01-15T06:10:03;0.80;99.90
52565;DHT22;38460;53.106;7.004;2024-01-15T06:12:30;0.80;99.90
52565;DHT22;38460;53.106;7.004;2024-01-15T06:14:57;0.90;99.90
52565;DHT22;38460;53.106;7.004;2024-01-15T06:17:23;0.80;99.90
52565;DHT22;38460;53.106;7.004;2024-01-15T06:19:49;0.70;99.90
52565;DHT22;38460;53.106;7.004;2024-01-15T06:22:14;0.80;99.90
52565;DHT22;38460;53.106;7.004;2024-01-15T06:24:40;0.90;99.90
52565;DHT22;38460;53.106;7.004;2024-01-15T06:27:06;0.70;99.90
52565;DHT22;38460;53.106;7.004;2024-01-15T06:29:32;0.70;99.90
52565;DHT22;38460;53.106;7.004;2024-01-15T06:31:58;0.70;99.90
52565;DHT22;38460;53.106;7.004;2024-01-15T06:34:23;0.70;99.90
52565;DHT22;38460;53.106;7.004;2024-01-15T06:36:49;0.70;99.90
52565;DHT22;38460;53.106;7.004;2024-01-15T06:39:15;0.70;99.90
52565;DHT22;38460;53.106;7.004;2024-01-15T06:41:40;0.70;99.90
52565;DHT22;38460;53.106;7.004;2024-01-15T06:44:10;0.80;99.90
52565;DHT22;38460;53.106;7.004;2024-01-15T06:46:37;0.60;99.90
52565;DHT22;38460;53.106;7.004;2024-01-15T06:49:02;0.60;99.90
52565;DHT22;38460;53.106;7.004;2024-01-15T06:51:29;0.60;99.90
52565;DHT22;38460;53.106;7.004;2024-01-15T06:53:55;0.50;99.90
52565;DHT22;38460;53.106;7.004;2024-01-15T06:56:20;0.60;99.90
52565;DHT22;38460;53.106;7.004;2024-01-15T06:58:46;0.50;99.90
52565;DHT22;38460;53.106;7.004;2024-01-15T07:01:12;0.50;99.90
52565;DHT22;38460;53.106;7.004;2024-01-15T07:03:38;0.50;99.90
52565;DHT22;38460;53.106;7.004;2024-01-15T07:06:04;0.50;99.90
52565;DHT22;38460;53.106;7.004;2024-01-15T07:08:29;0.50;99.90
52565;DHT22;38460;53.106;7.004;2024-01-15T07:10:56;0.60;99.90
52565;DHT22;38460;53.106;7.004;2024-01-15T07:13:22;0.50;99.90
52565;DHT22;38460;53.106;7.004;2024-01-15T07:15:48;0.50;99.90
52565;DHT22;38460;53.106;7.004;2024-01-15T07:18:13;0.50;99.90
52565;DHT22;38460;53.106;7.004;2024-01-15T07:20:39;0.50;99.90
52565;DHT22;38460;53.106;7.004;2024-01-15T07:23:05;0.60;99.90
52565;DHT22;38460;53.106;7.004;2024-01-15T07:25:31;0.50;99.90
52565;DHT22;38460;53.106;7.004;2024-01-15T07:27:56;0.70;99.90
52565;DHT22;38460;53.106;7.004;2024-01-15T07:30:22;0.50;99.90
52565;DHT22;38460;53.106;7.004;2024-01-15T07:32:48;0.50;99.90
52565;DHT22;38460;53.106;7.004;2024-01-15T07:35:14;0.50;99.90
52565;DHT22;38460;53.106;7.004;2024-01-15T07:37:41;0.50;99.90
52565;DHT22;38460;53.106;7.004;2024-01-15T07:40:07;0.50;99.90
52565;DHT22;38460;53.106;7.004;2024-01-15T07:42:34;0.50;99.90
52565;DHT22;38460;53.106;7.004;2024-01-15T07:45:00;0.50;99.90
52565;DHT22;38460;53.106;7.004;2024-01-15T07:47:26;0.60;99.90
52565;DHT22;38460;53.106;7.004;2024-01-15T07:49:53;0.90;99.90
52565;DHT22;38460;53.106;7.004;2024-01-15T07:52:19;0.60;99.90
52565;DHT22;38460;53.106;7.004;2024-01-15T07:54:45;0.60;99.90
52565;DHT22;38460;53.106;7.004;2024-01-15T07:57:11;0.60;99.90
52565;DHT22;38460;53.106;7.004;2024-01-15T07:59:36;1.00;99.90
52565;DHT22;38460;53.106;7.004;2024-01-15T08:02:03;0.60;99.90
52565;DHT22;38460;53.106;7.004;2024-01-15T08:04:28;0.60;99.90
52565;DHT22;38460;53.106;7.004;2024-01-15T08:06:54;0.70;99.90
52565;DHT22;38460;53.106;7.004;2024-01-15T08:09:20;0.50;99.90
52565;DHT22;38460;53.106;7.004;2024-01-15T08:11:46;0.50;99.90
52565;DHT22;38460;53.106;7.004;2024-01-15T08:14:12;0.50;99.90
52565;DHT22;38460;53.106;7.004;2024-01-15T08:16:39;0.50;99.90
52565;DHT22;38460;53.106;7.004;2024-01-15T08:19:05;0.80;99.90
52565;DHT22;38460;53.106;7.004;2024-01-15T08:21:31;1.20;99.90
52565;DHT22;38460;53.106;7.004;2024-01-15T08:24:01;0.50;99.90
52565;DHT22;38460;53.106;7.004;2024-01-15T08:26:30;0.50;99.90
52565;DHT22;38460;53.106;7.004;2024-01-15T08:28:56;0.90;99.90
52565;DHT22;38460;53.106;7.004;2024-01-15T08:31:22;0.60;99.90
52565;DHT22;38460;53.106;7.004;2024-01-15T08:33:48;0.60;99.90
52565;DHT22;38460;53.106;7.004;2024-01-15T08:36:14;0.70;99.90
52565;DHT22;38460;53.106;7.004;2024-01-15T08:38:39;0.80;99.90
52565;DHT22;38460;53.106;7.004;2024-01-15T08:41:05;0.70;99.90
52565;DHT22;38460;53.106;7.004;2024-01-15T08:43:31;0.70;99.90
52565;DHT22;38460;53.106;7.004;2024-01-15T08:45:57;0.80;99.90
52565;DHT22;38460;53.106;7.004;2024-01-15T08:48:23;0.90;99.90
52565;DHT22;38460;53.106;7.004;2024-01-15T08:50:49;0.80;99.90
52565;DHT22;38460;53.106;7.004;2024-01-15T08:53:15;0.80;99.90
52565;DHT22;38460;53.106;7.004;2024-01-15T08:55:40;0.70;99.90
52565;DHT22;38460;53.106;7.004;2024-01-15T08:58:10;0.70;99.90
52565;DHT22;38460;53.106;7.004;2024-01-15T09:00:35;0.70;99.90
52565;DHT22;38460;53.106;7.004;2024-01-15T09:03:02;0.70;99.90
52565;DHT22;38460;53.106;7.004;2024-01-15T09:05:28;0.80;99.90
52565;DHT22;38460;53.106;7.004;2024-01-15T09:07:54;0.80;99.90
52565;DHT22;38460;53.106;7.004;2024-01-15T09:10:20;0.80;99.90
52565;DHT22;38460;53.106;7.004;2024-01-15T09:12:46;0.80;99.90
52565;DHT22;38460;53.106;7.004;2024-01-15T09:15:12;0.90;99.90
52565;DHT22;38460;53.106;7.004;2024-01-15T09:17:38;0.90;99.90
52565;DHT22;38460;53.106;7.004;2024-01-15T09:20:04;0.90;99.90
52565;DHT22;38460;53.106;7.004;2024-01-15T09:22:31;0.90;99.90
52565;DHT22;38460;53.106;7.004;2024-01-15T09:24:57;1.00;99.90
52565;DHT22;38460;53.106;7.004;2024-01-15T09:27:23;1.00;99.90
52565;DHT22;38460;53.106;7.004;2024-01-15T09:29:54;0.90;99.90
52565;DHT22;38460;53.106;7.004;2024-01-15T09:32:20;0.90;99.90
52565;DHT22;38460;53.106;7.004;2024-01-15T09:34:46;1.00;99.90
52565;DHT22;38460;53.106;7.004;2024-01-15T09:37:13;0.80;99.90
52565;DHT22;38460;53.106;7.004;2024-01-15T09:39:40;0.80;99.90
52565;DHT22;38460;53.106;7.004;2024-01-15T09:42:06;0.80;99.90
52565;DHT22;38460;53.106;7.004;2024-01-15T09:44:32;0.90;99.90
52565;DHT22;38460;53.106;7.004;2024-01-15T09:46:58;0.90;99.90
52565;DHT22;38460;53.106;7.004;2024-01-15T09:49:25;1.30;99.90
52565;DHT22;38460;53.106;7.004;2024-01-15T09:51:51;0.90;99.90
52565;DHT22;38460;53.106;7.004;2024-01-15T09:54:17;1.00;99.90
52565;DHT22;38460;53.106;7.004;2024-01-15T09:56:46;1.40;99.90
52565;DHT22;38460;53.106;7.004;2024-01-15T09:59:18;1.00;99.90
52565;DHT22;38460;53.106;7.004;2024-01-15T10:01:45;1.00;99.90
52565;DHT22;38460;53.106;7.004;2024-01-15T10:04:14;1.00;99.90
52565;DHT22;38460;53.106;7.004;2024-01-15T10:06:44;1.10;99.90
52565;DHT22;38460;53.106;7.004;2024-01-15T10:09:12;1.10;99.90
52565;DHT22;38460;53.106;7.004;2024-01-15T10:11:41;1.10;99.90
52565;DHT22;38460;53.106;7.004;2024-01-15T10:14:08;1.10;99.90
52565;DHT22;38460;53.106;7.004;2024-01-15T10:16:34;1.20;99.90
52565;DHT22;38460;53.106;7.004;2024-01-15T10:19:00;1.20;99.90
52565;DHT22;38460;53.106;7.004;2024-01-15T10:21:25;1.20;99.90
52565;DHT22;38460;53.106;7.004;2024-01-15T10:23:52;1.30;99.90
52565;DHT22;38460;53.106;7.004;2024-01-15T10:26:17;1.40;99.90
52565;DHT22;38460;53.106;7.004;2024-01-15T10:28:43;1.50;99.90
52565;DHT22;38460;53.106;7.004;2024-01-15T10:31:09;1.60;99.90
52565;DHT22;38460;53.106;7.004;2024-01-15T10:33:35;1.70;99.90
52565;DHT22;38460;53.106;7.004;2024-01-15T10:36:01;1.70;99.90
52565;DHT22;38460;53.106;7.004;2024-01-15T10:38:27;1.60;99.90
52565;DHT22;38460;53.106;7.004;2024-01-15T10:40:53;1.60;99.90
52565;DHT22;38460;53.106;7.004;2024-01-15T10:43:20;1.60;99.90
52565;DHT22;38460;53.106;7.004;2024-01-15T10:45:50;1.80;99.90
52565;DHT22;38460;53.106;7.004;2024-01-15T10:48:17;1.50;99.90
52565;DHT22;38460;53.106;7.004;2024-01-15T10:50:47;1.50;99.90
52565;DHT22;38460;53.106;7.004;2024-01-15T10:53:15;1.50;99.90
52565;DHT22;38460;53.106;7.004;2024-01-15T10:55:42;1.40;99.90
52565;DHT22;38460;53.106;7.004;2024-01-15T10:58:09;1.30;99.90
52565;DHT22;38460;53.106;7.004;2024-01-15T11:00:35;1.30;99.90
52565;DHT22;38460;53.106;7.004;2024-01-15T11:03:04;1.30;99.90
52565;DHT22;38460;53.106;7.004;2024-01-15T11:05:44;1.30;99.90
52565;DHT22;38460;53.106;7.004;2024-01-15T11:08:10;1.40;99.90
52565;DHT22;38460;53.106;7.004;2024-01-15T11:10:46;1.40;99.90
52565;DHT22;38460;53.106;7.004;2024-01-15T11:13:20;1.50;99.90
52565;DHT22;38460;53.106;7.004;2024-01-15T11:15:55;1.90;99.90
52565;DHT22;38460;53.106;7.004;2024-01-15T11:18:22;1.70;99.90
52565;DHT22;38460;53.106;7.004;2024-01-15T11:26:38;1.60;99.90
52565;DHT22;38460;53.106;7.004;2024-01-15T11:29:29;1.70;99.90
52565;DHT22;38460;53.106;7.004;2024-01-15T11:34:21;1.40;99.90
52565;DHT22;38460;53.106;7.004;2024-01-15T11:37:07;1.40;99.90
52565;DHT22;38460;53.106;7.004;2024-01-15T11:42:00;1.40;99.90
52565;DHT22;38460;53.106;7.004;2024-01-15T11:44:26;1.40;99.90
52565;DHT22;38460;53.106;7.004;2024-01-15T11:47:02;1.50;99.90
52565;DHT22;38460;53.106;7.004;2024-01-15T11:52:01;1.50;99.90
52565;DHT22;38460;53.106;7.004;2024-01-15T11:54:30;1.50;99.90
52565;DHT22;38460;53.106;7.004;2024-01-15T11:57:00;1.50;99.90
52565;DHT22;38460;53.106;7.004;2024-01-15T11:59:29;1.60;99.90
52565;DHT22;38460;53.106;7.004;2024-01-15T12:01:56;1.50;99.90
52565;DHT22;38460;53.106;7.004;2024-01-15T12:04:22;1.60;99.90
52565;DHT22;38460;53.106;7.004;2024-01-15T12:06:47;1.60;99.90
52565;DHT22;38460;53.106;7.004;2024-01-15T12:09:13;1.60;99.90
52565;DHT22;38460;53.106;7.004;2024-01-15T12:11:42;1.60;99.90
52565;DHT22;38460;53.106;7.004;2024-01-15T12:14:11;1.60;99.90
52565;DHT22;38460;53.106;7.004;2024-01-15T12:16:36;1.90;99.90
52565;DHT22;38460;53.106;7.004;2024-01-15T12:22:44;1.50;99.90
52565;DHT22;38460;53.106;7.004;2024-01-15T12:25:10;1.50;99.90
52565;DHT22;38460;53.106;7.004;2024-01-15T12:27:36;1.50;99.90
52565;DHT22;38460;53.106;7.004;2024-01-15T12:30:02;1.50;99.90
52565;DHT22;38460;53.106;7.004;2024-01-15T12:32:29;1.50;99.90
52565;DHT22;38460;53.106;7.004;2024-01-15T12:34:55;1.80;99.90
52565;DHT22;38460;53.106;7.004;2024-01-15T12:37:21;1.50;99.90
52565;DHT22;38460;53.106;7.004;2024-01-15T12:39:47;1.50;99.90
52565;DHT22;38460;53.106;7.004;2024-01-15T12:42:17;1.50;99.90
52565;DHT22;38460;53.106;7.004;2024-01-15T12:44:44;1.80;99.90
52565;DHT22;38460;53.106;7.004;2024-01-15T12:47:10;1.60;99.90
52565;DHT22;38460;53.106;7.004;2024-01-15T12:49:37;1.60;99.90
52565;DHT22;38460;53.106;7.004;2024-01-15T12:52:03;1.70;99.90
52565;DHT22;38460;53.106;7.004;2024-01-15T12:54:29;1.70;99.90
52565;DHT22;38460;53.106;7.004;2024-01-15T12:56:55;1.70;99.90
52565;DHT22;38460;53.106;7.004;2024-01-15T12:59:20;1.70;99.90
52565;DHT22;38460;53.106;7.004;2024-01-15T13:01:46;1.90;99.90
52565;DHT22;38460;53.106;7.004;2024-01-15T13:04:21;1.80;99.90
52565;DHT22;38460;53.106;7.004;2024-01-15T13:06:47;1.90;99.90
52565;DHT22;38460;53.106;7.004;2024-01-15T13:09:15;2.10;99.90
52565;DHT22;38460;53.106;7.004;2024-01-15T13:11:40;2.10;99.90
52565;DHT22;38460;53.106;7.004;2024-01-15T13:14:06;2.20;99.90
52565;DHT22;38460;53.106;7.004;2024-01-15T13:16:32;2.30;99.90
52565;DHT22;38460;53.106;7.004;2024-01-15T13:18:58;2.30;99.90
52565;DHT22;38460;53.106;7.004;2024-01-15T13:21:24;2.90;99.90
52565;DHT22;38460;53.106;7.004;2024-01-15T13:23:50;2.30;99.90
52565;DHT22;38460;53.106;7.004;2024-01-15T13:26:16;2.30;99.90
52565;DHT22;38460;53.106;7.004;2024-01-15T13:28:44;2.20;99.90
52565;DHT22;38460;53.106;7.004;2024-01-15T13:31:09;2.30;99.90
52565;DHT22;38460;53.106;7.004;2024-01-15T13:33:35;2.20;99.90
52565;DHT22;38460;53.106;7.004;2024-01-15T13:36:01;2.20;99.90
52565;DHT22;38460;53.106;7.004;2024-01-15T13:38:28;2.20;99.90
52565;DHT22;38460;53.106;7.004;2024-01-15T13:40:57;2.10;99.90
52565;DHT22;38460;53.106;7.004;2024-01-15T13:43:22;2.10;99.90
52565;DHT22;38460;53.106;7.004;2024-01-15T13:45:48;2.20;99.90
52565;DHT22;38460;53.106;7.004;2024-01-15T13:48:14;2.10;99.90
52565;DHT22;38460;53.106;7.004;2024-01-15T13:50:40;2.10;99.90
52565;DHT22;38460;53.106;7.004;2024-01-15T13:53:06;2.10;99.90
52565;DHT22;38460;53.106;7.004;2024-01-15T13:55:32;2.30;99.90
52565;DHT22;38460;53.106;7.004;2024-01-15T13:57:57;2.00;99.90
52565;DHT22;38460;53.106;7.004;2024-01-15T14:00:23;2.00;99.90
52565;DHT22;38460;53.106;7.004;2024-01-15T14:02:49;2.20;99.90
52565;DHT22;38460;53.106;7.004;2024-01-15T14:05:15;1.90;99.90
52565;DHT22;38460;53.106;7.004;2024-01-15T14:07:42;1.90;99.90
52565;DHT22;38460;53.106;7.004;2024-01-15T14:10:09;1.90;99.90
52565;DHT22;38460;53.106;7.004;2024-01-15T14:12:35;1.90;99.90
52565;DHT22;38460;53.106;7.004;2024-01-15T14:15:02;2.10;99.90
52565;DHT22;38460;53.106;7.004;2024-01-15T14:17:29;1.90;99.90
52565;DHT22;38460;53.106;7.004;2024-01-15T14:19:55;1.90;99.90
52565;DHT22;38460;53.106;7.004;2024-01-15T14:22:20;2.00;99.90
52565;DHT22;38460;53.106;7.004;2024-01-15T14:24:46;1.70;99.90
52565;DHT22;38460;53.106;7.004;2024-01-15T14:27:12;1.70;99.90
52565;DHT22;38460;53.106;7.004;2024-01-15T14:29:38;1.60;99.90
52565;DHT22;38460;53.106;7.004;2024-01-15T14:32:03;1.60;99.90
52565;DHT22;38460;53.106;7.004;2024-01-15T14:34:29;1.60;99.90
52565;DHT22;38460;53.106;7.004;2024-01-15T14:36:55;1.50;99.90
52565;DHT22;38460;53.106;7.004;2024-01-15T14:39:24;1.50;99.90
52565;DHT22;38460;53.106;7.004;2024-01-15T14:41:51;1.50;99.90
52565;DHT22;38460;53.106;7.004;2024-01-15T14:44:17;1.40;99.90
52565;DHT22;38460;53.106;7.004;2024-01-15T14:46:43;1.40;99.90
52565;DHT22;38460;53.106;7.004;2024-01-15T14:49:08;1.30;99.90
52565;DHT22;38460;53.106;7.004;2024-01-15T14:51:34;1.30;99.90
52565;DHT22;38460;53.106;7.004;2024-01-15T14:54:00;1.30;99.90
52565;DHT22;38460;53.106;7.004;2024-01-15T14:56:26;1.30;99.90
52565;DHT22;38460;53.106;7.004;2024-01-15T14:58:51;1.30;99.90
52565;DHT22;38460;53.106;7.004;2024-01-15T15:01:17;1.30;99.90
52565;DHT22;38460;53.106;7.004;2024-01-15T15:03:43;1.20;99.90
52565;DHT22;38460;53.106;7.004;2024-01-15T15:06:09;1.20;99.90
52565;DHT22;38460;53.106;7.004;2024-01-15T15:08:36;1.20;99.90
52565;DHT22;38460;53.106;7.004;2024-01-15T15:11:03;1.20;99.90
52565;DHT22;38460;53.106;7.004;2024-01-15T15:13:29;1.20;99.90
52565;DHT22;38460;53.106;7.004;2024-01-15T15:15:55;1.20;99.90
52565;DHT22;38460;53.106;7.004;2024-01-15T15:18:21;1.20;99.90
52565;DHT22;38460;53.106;7.004;2024-01-15T15:20:48;1.20;99.90
52565;DHT22;38460;53.106;7.004;2024-01-15T15:23:15;1.20;99.90
52565;DHT22;38460;53.106;7.004;2024-01-15T15:25:41;1.20;99.90
52565;DHT22;38460;53.106;7.004;2024-01-15T15:28:10;1.20;99.90
52565;DHT22;38460;53.106;7.004;2024-01-15T15:30:37;1.10;99.90
52565;DHT22;38460;53.106;7.004;2024-01-15T15:33:03;1.10;99.90
52565;DHT22;38460;53.106;7.004;2024-01-15T15:35:30;1.10;99.90
52565;DHT22;38460;53.106;7.004;2024-01-15T15:37:56;1.10;99.90
52565;DHT22;38460;53.106;7.004;2024-01-15T15:40:22;1.10;99.90
52565;DHT22;38460;53.106;7.004;2024-01-15T15:42:51;1.30;99.90
52565;DHT22;38460;53.106;7.004;2024-01-15T15:45:18;1.00;99.90
52565;DHT22;38460;53.106;7.004;2024-01-15T15:47:44;1.00;99.90
52565;DHT22;38460;53.106;7.004;2024-01-15T15:50:09;0.90;99.90
52565;DHT22;38460;53.106;7.004;2024-01-15T15:52:35;0.90;99.90
52565;DHT22;38460;53.106;7.004;2024-01-15T15:55:01;0.90;99.90
52565;DHT22;38460;53.106;7.004;2024-01-15T15:57:28;0.90;99.90